createdAt,value
2019-04-25T00:02:04.003Z,14.63
2019-04-25T00:04:32.849Z,18.60
2019-04-25T00:07:02.275Z,12.80
2019-04-25T00:09:32.818Z,13.53
2019-04-25T00:12:02.254Z,13.20
2019-04-25T00:14:31.530Z,10.87
2019-04-25T00:17:01.734Z,22.63
2019-04-25T00:19:31.675Z,9.53
2019-04-25T00:22:02.284Z,12.80
2019-04-25T00:24:49.492Z,16.10
2019-04-25T00:27:18.618Z,18.53
2019-04-25T00:29:47.519Z,17.90
2019-04-25T00:32:16.516Z,15.40
2019-04-25T00:34:45.937Z,16.80
2019-04-25T00:37:15.690Z,11.17
2019-04-25T00:39:45.326Z,13.97
2019-04-25T00:42:15.255Z,15.97
2019-04-25T00:44:45.047Z,10.93
2019-04-25T00:47:14.794Z,17.80
2019-04-25T00:49:44.874Z,18.87
2019-04-25T00:52:14.242Z,12.63
2019-04-25T00:54:43.195Z,11.60
2019-04-25T00:57:13.699Z,16.83
2019-04-25T00:59:45.410Z,13.27
2019-04-25T01:02:21.980Z,11.63
2019-04-25T01:04:52.092Z,12.20
2019-04-25T01:07:22.388Z,16.23
2019-04-25T01:09:52.414Z,15.83
2019-04-25T01:12:22.300Z,15.37
2019-04-25T01:14:52.793Z,12.13
2019-04-25T01:17:22.888Z,15.17
2019-04-25T01:19:51.920Z,16.67
2019-04-25T01:22:21.226Z,14.47
2019-04-25T01:24:50.111Z,15.90
2019-04-25T01:27:18.998Z,14.80
2019-04-25T01:29:48.040Z,13.57
2019-04-25T01:32:18.604Z,16.90
2019-04-25T01:35:04.087Z,14.90
2019-04-25T01:37:34.642Z,10.80
2019-04-25T01:40:23.586Z,10.73
2019-04-25T01:43:09.261Z,12.07
2019-04-25T01:45:38.119Z,14.93
2019-04-25T01:48:07.432Z,16.63
2019-04-25T01:50:36.361Z,12.70
2019-04-25T01:53:05.270Z,12.23
2019-04-25T01:55:34.247Z,12.13
2019-04-25T01:58:03.876Z,16.73
2019-04-25T02:00:34.587Z,12.97
2019-04-25T02:03:04.510Z,12.47
2019-04-25T02:05:33.871Z,13.50
2019-04-25T02:08:04.396Z,12.10
2019-04-25T02:10:34.427Z,12.33
2019-04-25T02:13:23.641Z,12.23
2019-04-25T02:15:54.782Z,11.10
2019-04-25T02:18:23.707Z,11.83
2019-04-25T02:20:56.584Z,11.87
2019-04-25T02:23:24.039Z,10.00
2019-04-25T02:26:06.082Z,14.83
2019-04-25T02:28:24.083Z,9.53
2019-04-25T02:30:57.294Z,12.23
2019-04-25T02:33:24.326Z,11.30
2019-04-25T02:35:54.341Z,12.30
2019-04-25T02:38:24.384Z,10.40
2019-04-25T02:40:56.263Z,8.40
2019-04-25T02:43:24.376Z,10.90
2019-04-25T02:45:59.925Z,12.73
2019-04-25T02:48:45.876Z,10.57
2019-04-25T02:51:19.114Z,16.30
2019-04-25T02:53:55.960Z,12.27
2019-04-25T02:56:33.217Z,12.27
2019-04-25T02:58:56.516Z,12.40
2019-04-25T03:01:26.241Z,12.37
2019-04-25T03:03:57.345Z,11.60
2019-04-25T03:06:25.922Z,9.13
2019-04-25T03:08:54.875Z,9.37
2019-04-25T03:11:24.504Z,11.43
2019-04-25T03:13:54.564Z,11.43
2019-04-25T03:16:25.116Z,11.33
2019-04-25T03:18:55.792Z,12.50
2019-04-25T03:21:29.127Z,9.13
2019-04-25T03:23:58.443Z,10.93
2019-04-25T03:26:37.950Z,7.87
2019-04-25T03:28:59.729Z,7.83
2019-04-25T03:31:28.638Z,11.83
2019-04-25T03:33:57.564Z,11.23
2019-04-25T03:36:26.426Z,11.70
2019-04-25T03:38:55.270Z,10.17
2019-04-25T03:41:24.555Z,5.77
2019-04-25T03:43:54.169Z,10.03
2019-04-25T03:46:23.356Z,11.30
2019-04-25T03:48:53.989Z,8.37
2019-04-25T03:51:23.999Z,7.10
2019-04-25T03:53:53.592Z,10.00
2019-04-25T03:56:22.715Z,7.33
2019-04-25T03:58:51.652Z,7.93
2019-04-25T04:01:20.499Z,6.03
2019-04-25T04:03:49.414Z,10.90
2019-04-25T04:06:18.341Z,7.67
2019-04-25T04:08:47.255Z,8.27
2019-04-25T04:11:16.241Z,8.27
2019-04-25T04:13:45.107Z,8.47
2019-04-25T04:16:15.787Z,6.23
2019-04-25T04:18:46.260Z,13.77
2019-04-25T04:21:33.223Z,7.13
2019-04-25T04:24:04.119Z,12.13
2019-04-25T04:26:33.232Z,6.83
2019-04-25T04:29:03.057Z,7.63
2019-04-25T04:31:33.580Z,11.50
2019-04-25T04:34:03.770Z,11.10
2019-04-25T04:36:33.878Z,8.80
2019-04-25T04:39:03.894Z,12.77
2019-04-25T04:41:33.903Z,10.40
2019-04-25T04:44:04.155Z,6.97
2019-04-25T04:46:34.020Z,3.77
2019-04-25T04:49:03.933Z,7.33
2019-04-25T04:51:33.621Z,14.03
2019-04-25T04:54:03.426Z,7.03
2019-04-25T04:56:34.210Z,8.03
2019-04-25T04:59:03.661Z,12.93
2019-04-25T05:01:34.348Z,8.10
2019-04-25T05:04:04.858Z,10.40
2019-04-25T05:06:53.604Z,12.10
2019-04-25T05:09:24.376Z,7.77
2019-04-25T05:11:54.013Z,11.20
2019-04-25T05:14:23.881Z,6.10
2019-04-25T05:17:05.193Z,10.30
2019-04-25T05:19:34.101Z,5.80
2019-04-25T05:22:03.638Z,5.37
2019-04-25T05:24:33.861Z,6.70
2019-04-25T05:27:03.887Z,8.67
2019-04-25T05:29:33.967Z,9.67
2019-04-25T05:32:04.231Z,9.93
2019-04-25T05:34:34.448Z,9.23
2019-04-25T05:37:03.875Z,4.87
2019-04-25T05:39:33.485Z,6.27
2019-04-25T05:42:06.139Z,9.60
2019-04-25T05:44:34.906Z,12.20
2019-04-25T05:47:04.211Z,5.60
2019-04-25T05:49:34.223Z,9.27
2019-04-25T05:52:04.024Z,6.80
2019-04-25T05:54:34.386Z,8.20
2019-04-25T05:57:03.755Z,5.63
2019-04-25T05:59:33.763Z,7.97
2019-04-25T06:02:03.918Z,8.07
2019-04-25T06:04:33.537Z,7.80
2019-04-25T06:07:03.026Z,6.57
2019-04-25T06:09:39.266Z,8.47
2019-04-25T06:12:25.890Z,7.93
2019-04-25T06:14:54.806Z,8.70
2019-04-25T06:17:34.413Z,7.13
2019-04-25T06:20:06.293Z,7.87
2019-04-25T06:22:48.823Z,5.77
2019-04-25T06:25:21.110Z,7.20
2019-04-25T06:27:58.642Z,8.67
2019-04-25T06:30:24.894Z,7.90
2019-04-25T06:32:54.311Z,8.03
2019-04-25T06:35:25.160Z,8.37
2019-04-25T06:37:53.777Z,6.73
2019-04-25T06:40:25.149Z,7.43
2019-04-25T06:42:55.227Z,8.20
2019-04-25T06:45:44.153Z,7.03
2019-04-25T06:48:17.448Z,7.70
2019-04-25T06:50:46.391Z,6.80
2019-04-25T06:53:15.261Z,9.73
2019-04-25T06:55:45.012Z,6.70
2019-04-25T06:58:14.514Z,4.23
2019-04-25T07:00:57.187Z,4.57
2019-04-25T07:03:15.599Z,7.03
2019-04-25T07:05:44.888Z,5.80
2019-04-25T07:08:13.822Z,7.07
2019-04-25T07:10:44.489Z,5.60
2019-04-25T07:13:14.253Z,6.37
2019-04-25T07:15:43.742Z,5.87
2019-04-25T07:18:13.942Z,8.80
2019-04-25T07:20:45.128Z,7.43
2019-04-25T07:23:13.792Z,4.00
2019-04-25T07:25:44.218Z,5.17
2019-04-25T07:28:28.400Z,4.67
2019-04-25T07:31:03.498Z,6.00
2019-04-25T07:33:40.026Z,4.67
2019-04-25T07:36:10.671Z,5.07
2019-04-25T07:38:39.637Z,5.23
2019-04-25T07:41:08.581Z,4.37
2019-04-25T07:43:37.446Z,2.60
2019-04-25T07:46:06.838Z,5.37
2019-04-25T07:48:37.102Z,2.57
2019-04-25T07:51:06.360Z,3.07
2019-04-25T07:53:36.115Z,3.50
2019-04-25T07:56:05.341Z,6.40
2019-04-25T07:58:49.256Z,6.07
2019-04-25T08:01:13.839Z,8.10
2019-04-25T08:03:43.842Z,10.83
2019-04-25T08:06:13.781Z,9.43
2019-04-25T08:08:43.684Z,11.87
2019-04-25T08:11:14.018Z,13.40
2019-04-25T08:14:03.439Z,14.77
2019-04-25T08:16:34.793Z,19.33
2019-04-25T08:19:05.461Z,18.20
2019-04-25T08:21:35.682Z,11.93
2019-04-25T08:24:05.502Z,10.73
2019-04-25T08:26:36.075Z,14.83
2019-04-25T08:29:05.566Z,11.60
2019-04-25T08:31:36.053Z,13.07
2019-04-25T08:34:05.205Z,17.53
2019-04-25T08:36:38.046Z,11.33
2019-04-25T08:39:07.698Z,16.40
2019-04-25T08:41:37.021Z,13.23
2019-04-25T08:44:06.031Z,14.80
2019-04-25T08:46:36.775Z,14.00
2019-04-25T08:49:16.371Z,13.13
2019-04-25T08:51:45.960Z,19.20
2019-04-25T08:54:16.472Z,13.73
2019-04-25T08:56:45.312Z,11.07
2019-04-25T08:59:34.088Z,12.60
2019-04-25T09:01:56.695Z,13.03
2019-04-25T09:04:34.794Z,12.63
2019-04-25T09:07:05.359Z,8.93
2019-04-25T09:09:37.983Z,11.80
2019-04-25T09:12:07.678Z,11.20
2019-04-25T09:14:37.565Z,14.27
2019-04-25T09:17:06.757Z,14.77
2019-04-25T09:19:36.264Z,14.67
2019-04-25T09:22:06.214Z,10.43
2019-04-25T09:24:36.858Z,11.87
2019-04-25T09:27:05.748Z,15.23
2019-04-25T09:29:35.459Z,13.70
2019-04-25T09:32:05.407Z,14.70
2019-04-25T09:34:35.473Z,13.80
2019-04-25T09:37:05.131Z,9.43
2019-04-25T09:39:36.899Z,11.50
2019-04-25T09:42:06.242Z,12.33
2019-04-25T09:44:38.200Z,15.47
2019-04-25T09:47:08.450Z,15.33
2019-04-25T09:49:39.117Z,15.00
2019-04-25T09:52:09.707Z,18.40
2019-04-25T09:54:44.138Z,13.33
2019-04-25T09:57:14.982Z,14.27
2019-04-25T09:59:45.068Z,11.97
2019-04-25T10:02:14.867Z,16.47
2019-04-25T10:04:45.230Z,9.03
2019-04-25T10:07:14.366Z,11.43
2019-04-25T10:09:44.656Z,5.87
2019-04-25T10:12:14.643Z,12.27
2019-04-25T10:15:02.013Z,10.27
2019-04-25T10:17:30.995Z,13.87
2019-04-25T10:19:59.846Z,11.70
2019-04-25T10:22:29.547Z,9.67
2019-04-25T10:25:00.674Z,8.80
2019-04-25T10:27:29.341Z,6.33
2019-04-25T10:29:58.315Z,8.77
2019-04-25T10:32:27.259Z,4.83
2019-04-25T10:34:56.186Z,5.93
2019-04-25T10:37:25.069Z,10.87
2019-04-25T10:39:55.556Z,7.57
2019-04-25T10:42:24.657Z,11.60
2019-04-25T10:44:56.240Z,11.07
2019-04-25T10:47:24.090Z,7.47
2019-04-25T10:49:53.683Z,9.33
2019-04-25T10:52:23.662Z,9.33
2019-04-25T10:54:54.174Z,6.80
2019-04-25T10:57:24.958Z,7.57
2019-04-25T11:00:05.619Z,5.83
2019-04-25T11:02:24.551Z,6.73
2019-04-25T11:05:04.045Z,6.00
2019-04-25T11:07:34.001Z,7.33
2019-04-25T11:10:03.673Z,5.73
2019-04-25T11:12:33.812Z,6.60
2019-04-25T11:15:04.007Z,7.97
2019-04-25T11:17:33.880Z,5.50
2019-04-25T11:20:03.651Z,6.43
2019-04-25T11:22:34.186Z,5.57
2019-04-25T11:25:03.336Z,9.37
2019-04-25T11:27:34.034Z,8.80
2019-04-25T11:30:10.605Z,9.43
2019-04-25T11:32:34.081Z,7.87
2019-04-25T11:35:05.135Z,5.87
2019-04-25T11:37:34.373Z,7.30
2019-04-25T11:40:11.596Z,8.87
2019-04-25T11:42:40.538Z,7.83
2019-04-25T11:45:11.243Z,10.57
2019-04-25T11:47:40.226Z,7.10
2019-04-25T11:50:09.426Z,6.27
2019-04-25T11:52:38.346Z,6.10
2019-04-25T11:55:08.654Z,5.67
2019-04-25T11:57:38.135Z,7.33
2019-04-25T12:00:21.343Z,8.07
2019-04-25T12:02:39.146Z,7.80
2019-04-25T12:05:08.062Z,7.83
2019-04-25T12:07:36.951Z,9.57
2019-04-25T12:10:08.666Z,8.67
2019-04-25T12:12:37.561Z,5.63
2019-04-25T12:15:09.278Z,10.03
2019-04-25T12:17:38.186Z,7.47
2019-04-25T12:20:07.206Z,6.93
2019-04-25T12:22:36.032Z,6.37
2019-04-25T12:25:07.073Z,6.90
2019-04-25T12:27:35.938Z,9.63
2019-04-25T12:30:06.548Z,6.03
2019-04-25T12:32:35.428Z,8.90
2019-04-25T12:35:06.300Z,8.27
2019-04-25T12:37:35.251Z,5.53
2019-04-25T12:40:06.741Z,9.87
2019-04-25T12:42:35.839Z,8.07
2019-04-25T12:45:07.101Z,7.57
2019-04-25T12:47:37.636Z,7.73
2019-04-25T12:50:06.688Z,4.07
2019-04-25T12:52:35.580Z,4.60
2019-04-25T12:55:06.566Z,4.63
2019-04-25T12:57:35.598Z,5.13
2019-04-25T13:00:05.995Z,4.83
2019-04-25T13:02:36.439Z,6.90
2019-04-25T13:05:06.038Z,5.57
2019-04-25T13:07:36.345Z,7.30
2019-04-25T13:10:07.914Z,6.90
2019-04-25T13:12:36.861Z,6.17
2019-04-25T13:15:06.592Z,7.90
2019-04-25T13:17:35.480Z,7.83
2019-04-25T13:20:07.581Z,5.67
2019-04-25T13:22:36.752Z,6.67
2019-04-25T13:25:07.113Z,7.50
2019-04-25T13:27:37.641Z,9.03
2019-04-25T13:30:21.886Z,11.17
2019-04-25T13:33:10.521Z,4.40
2019-04-25T13:35:40.978Z,7.90
2019-04-25T13:38:09.885Z,7.17
2019-04-25T13:40:38.799Z,4.27
2019-04-25T13:43:07.800Z,7.50
2019-04-25T13:45:36.835Z,8.23
2019-04-25T13:48:05.697Z,8.20
2019-04-25T13:50:34.742Z,5.83
2019-04-25T13:53:03.641Z,10.50
2019-04-25T13:55:32.583Z,10.80
2019-04-25T13:58:01.496Z,7.70
2019-04-25T14:00:30.727Z,7.50
2019-04-25T14:02:59.796Z,8.60
2019-04-25T14:05:30.316Z,8.97
2019-04-25T14:07:59.462Z,6.47
2019-04-25T14:10:28.647Z,6.87
2019-04-25T14:12:57.543Z,6.77
2019-04-25T14:15:28.206Z,7.85
2019-04-25T14:18:04.070Z,8.80
2019-04-25T14:20:34.544Z,9.20
2019-04-25T14:23:03.695Z,6.10
2019-04-25T14:25:33.160Z,6.97
2019-04-25T14:28:05.342Z,6.30
2019-04-25T14:30:34.392Z,7.23
2019-04-25T14:33:03.619Z,6.83
2019-04-25T14:35:33.282Z,6.30
2019-04-25T14:38:03.790Z,4.90
2019-04-25T14:40:33.262Z,9.33
2019-04-25T14:43:02.501Z,5.07
2019-04-25T14:45:43.996Z,7.70
2019-04-25T14:48:02.061Z,5.20
2019-04-25T14:50:31.834Z,7.40
2019-04-25T14:53:00.886Z,7.70
2019-04-25T14:55:43.229Z,4.90
2019-04-25T14:58:13.707Z,5.57
2019-04-25T15:00:44.215Z,4.40
2019-04-25T15:03:13.127Z,4.20
2019-04-25T15:05:43.503Z,5.73
2019-04-25T15:08:12.898Z,5.53
2019-04-25T15:10:41.949Z,8.65
2019-04-25T15:13:10.926Z,7.70
2019-04-25T15:15:39.881Z,7.67
2019-04-25T15:18:08.730Z,4.57
2019-04-25T15:20:37.599Z,5.53
2019-04-25T15:23:16.052Z,8.60
2019-04-25T15:25:44.927Z,5.50
2019-04-25T15:28:13.876Z,6.63
2019-04-25T15:30:42.755Z,6.13
2019-04-25T15:33:12.012Z,6.30
2019-04-25T15:35:42.469Z,5.00
2019-04-25T15:38:18.936Z,4.22
2019-04-25T15:40:49.388Z,6.23
2019-04-25T15:43:19.916Z,5.50
2019-04-25T15:45:55.931Z,8.63
2019-04-25T15:48:25.234Z,8.10
2019-04-25T15:50:55.618Z,4.03
2019-04-25T15:53:24.686Z,6.47
2019-04-25T15:55:54.116Z,6.30
2019-04-25T15:58:23.070Z,2.93
2019-04-25T16:00:52.002Z,4.10
2019-04-25T16:03:20.906Z,5.87
2019-04-25T16:05:49.787Z,8.07
2019-04-25T16:08:18.685Z,5.00
2019-04-25T16:10:47.649Z,4.27
2019-04-25T16:13:16.567Z,8.07
2019-04-25T16:15:45.470Z,6.37
2019-04-25T16:18:14.698Z,4.13
2019-04-25T16:20:43.584Z,5.00
2019-04-25T16:23:12.615Z,5.33
2019-04-25T16:25:41.511Z,7.10
2019-04-25T16:28:10.472Z,7.60
2019-04-25T16:30:40.715Z,5.80
2019-04-25T16:33:10.053Z,6.27
2019-04-25T16:35:38.976Z,6.37
2019-04-25T16:38:08.791Z,9.33
2019-04-25T16:40:37.707Z,8.00
2019-04-25T16:43:08.114Z,7.37
2019-04-25T16:45:38.612Z,4.20
2019-04-25T16:48:07.708Z,8.03
2019-04-25T16:50:36.577Z,7.13
2019-04-25T16:53:05.642Z,4.50
2019-04-25T16:55:34.504Z,5.33
2019-04-25T16:58:03.501Z,4.23
2019-04-25T17:00:43.251Z,5.67
2019-04-25T17:03:13.697Z,5.77
2019-04-25T17:05:43.025Z,4.87
2019-04-25T17:08:12.267Z,5.80
2019-04-25T17:10:41.627Z,5.37
2019-04-25T17:13:11.236Z,5.17
2019-04-25T17:15:47.677Z,7.43
2019-04-25T17:18:27.037Z,5.57
2019-04-25T17:21:06.645Z,7.90
2019-04-25T17:23:35.591Z,8.80
2019-04-25T17:26:05.046Z,5.87
2019-04-25T17:28:35.510Z,4.70
2019-04-25T17:31:15.206Z,6.60
2019-04-25T17:33:45.724Z,5.40
2019-04-25T17:36:25.361Z,8.07
2019-04-25T17:38:55.927Z,5.97
2019-04-25T17:41:27.136Z,7.63
2019-04-25T17:43:56.188Z,5.80
2019-04-25T17:46:25.147Z,8.47
2019-04-25T17:48:53.989Z,7.40
2019-04-25T17:51:23.051Z,4.27
2019-04-25T17:53:51.883Z,5.07
2019-04-25T17:56:20.881Z,6.07
2019-04-25T17:58:49.773Z,7.87
2019-04-25T18:01:20.208Z,9.23
2019-04-25T18:03:49.169Z,5.00
2019-04-25T18:06:18.047Z,4.67
2019-04-25T18:08:46.906Z,6.60
2019-04-25T18:11:16.008Z,8.97
2019-04-25T18:13:45.126Z,6.33
2019-04-25T18:16:15.558Z,8.97
2019-04-25T18:18:49.285Z,8.30
2019-04-25T18:21:18.217Z,7.37
2019-04-25T18:23:51.671Z,8.97
2019-04-25T18:26:24.875Z,14.27
2019-04-25T18:28:55.319Z,8.90
2019-04-25T18:31:24.151Z,6.73
2019-04-25T18:33:54.627Z,7.07
2019-04-25T18:36:25.151Z,8.40
2019-04-25T18:38:58.106Z,7.23
2019-04-25T18:41:28.585Z,5.53
2019-04-25T18:43:59.076Z,7.27
2019-04-25T18:46:35.925Z,6.03
2019-04-25T18:49:05.757Z,3.60
2019-04-25T18:51:34.738Z,8.13
2019-04-25T18:54:05.204Z,8.47
2019-04-25T18:56:35.638Z,5.10
2019-04-25T18:59:06.158Z,7.90
2019-04-25T19:01:38.029Z,7.90
2019-04-25T19:04:08.746Z,9.43
2019-04-25T19:06:51.018Z,4.20
2019-04-25T19:09:11.521Z,9.97
2019-04-25T19:11:40.915Z,13.63
2019-04-25T19:14:19.022Z,5.37
2019-04-25T19:16:47.951Z,7.37
2019-04-25T19:19:16.917Z,6.60
2019-04-25T19:21:45.790Z,8.47
2019-04-25T19:24:14.647Z,7.83
2019-04-25T19:26:44.679Z,7.67
2019-04-25T19:29:14.135Z,7.07
2019-04-25T19:31:43.011Z,9.30
2019-04-25T19:34:11.946Z,4.80
2019-04-25T19:36:41.516Z,6.93
2019-04-25T19:39:11.331Z,8.10
2019-04-25T19:41:42.852Z,8.07
2019-04-25T19:44:13.521Z,7.70
2019-04-25T19:46:44.835Z,9.23
2019-04-25T19:49:14.016Z,8.43
2019-04-25T19:51:43.107Z,7.53
2019-04-25T19:54:12.236Z,5.93
2019-04-25T19:56:41.230Z,6.90
2019-04-25T19:59:11.568Z,7.83
2019-04-25T20:01:40.408Z,7.70
2019-04-25T20:04:22.867Z,5.10
2019-04-25T20:07:11.536Z,6.47
2019-04-25T20:09:58.600Z,9.53
2019-04-25T20:12:29.807Z,7.67
2019-04-25T20:14:59.113Z,13.33
2019-04-25T20:17:27.982Z,8.23
2019-04-25T20:19:56.878Z,7.70
2019-04-25T20:22:25.771Z,6.60
2019-04-25T20:24:54.686Z,8.40
2019-04-25T20:27:23.605Z,7.77
2019-04-25T20:29:52.720Z,7.53
2019-04-25T20:32:21.576Z,9.53
2019-04-25T20:34:51.038Z,8.77
2019-04-25T20:37:20.266Z,7.53
2019-04-25T20:39:49.428Z,7.13
2019-04-25T20:42:18.347Z,6.00
2019-04-25T20:44:47.725Z,5.63
2019-04-25T20:47:21.025Z,7.73
2019-04-25T20:49:50.786Z,6.87
2019-04-25T20:52:19.861Z,7.70
2019-04-25T20:54:48.885Z,8.43
2019-04-25T20:57:17.851Z,9.33
2019-04-25T20:59:47.241Z,10.67
2019-04-25T21:02:17.292Z,6.63
2019-04-25T21:04:46.176Z,6.23
2019-04-25T21:07:15.098Z,8.37
2019-04-25T21:09:44.027Z,6.07
2019-04-25T21:12:12.951Z,9.00
2019-04-25T21:14:46.486Z,7.83
2019-04-25T21:17:16.956Z,7.53
2019-04-25T21:19:48.839Z,10.13
2019-04-25T21:22:18.151Z,7.30
2019-04-25T21:24:47.081Z,6.30
2019-04-25T21:27:16.032Z,7.33
2019-04-25T21:29:44.948Z,12.63
2019-04-25T21:32:15.187Z,7.90
2019-04-25T21:34:44.027Z,8.20
2019-04-25T21:37:13.213Z,13.03
2019-04-25T21:39:46.855Z,11.13
2019-04-25T21:42:17.826Z,10.03
2019-04-25T21:44:47.639Z,7.37
2019-04-25T21:47:16.604Z,7.03
2019-04-25T21:49:45.729Z,9.07
2019-04-25T21:52:14.623Z,7.53
2019-04-25T21:54:43.859Z,7.53
2019-04-25T21:57:13.037Z,6.57
2019-04-25T21:59:42.218Z,9.33
2019-04-25T22:02:11.208Z,8.77
2019-04-25T22:04:43.869Z,6.33
2019-04-25T22:07:11.199Z,10.23
2019-04-25T22:09:40.374Z,6.83
2019-04-25T22:12:11.386Z,10.43
2019-04-25T22:14:40.262Z,7.33
2019-04-25T22:17:10.259Z,6.10
2019-04-25T22:19:39.708Z,7.23
2019-04-25T22:22:08.726Z,10.00
2019-04-25T22:24:37.626Z,7.03
2019-04-25T22:27:08.093Z,10.40
2019-04-25T22:29:38.530Z,5.37
2019-04-25T22:32:12.077Z,7.17
2019-04-25T22:34:59.836Z,8.07
2019-04-25T22:37:28.871Z,6.40
2019-04-25T22:39:59.778Z,6.20
2019-04-25T22:42:28.826Z,6.70
2019-04-25T22:44:57.666Z,6.53
2019-04-25T22:47:26.582Z,8.20
2019-04-25T22:49:55.446Z,10.73
2019-04-25T22:52:24.570Z,5.33
2019-04-25T22:54:53.484Z,8.77
2019-04-25T22:57:22.651Z,7.53
2019-04-25T22:59:51.575Z,4.70
2019-04-25T23:02:24.675Z,7.20
2019-04-25T23:05:05.495Z,7.30
2019-04-25T23:07:28.878Z,15.23
2019-04-25T23:09:57.880Z,7.27
2019-04-25T23:12:27.168Z,6.30
2019-04-25T23:14:56.092Z,6.87
2019-04-25T23:17:24.954Z,7.30
2019-04-25T23:19:54.436Z,6.83
2019-04-25T23:22:23.326Z,7.87
2019-04-25T23:24:54.215Z,6.10
2019-04-25T23:27:39.798Z,6.33
2019-04-25T23:30:10.462Z,6.20
2019-04-25T23:32:39.802Z,5.90
2019-04-25T23:35:22.453Z,3.07
2019-04-25T23:37:39.341Z,11.30
2019-04-25T23:40:08.227Z,4.20
2019-04-25T23:42:37.141Z,7.40
2019-04-25T23:45:08.090Z,6.70
2019-04-25T23:47:37.080Z,5.70
2019-04-25T23:50:08.555Z,4.00
2019-04-25T23:52:41.055Z,6.23
2019-04-25T23:55:10.969Z,9.00
2019-04-25T23:57:40.217Z,6.93
